sensor_id;sensor_type;location;lat;lon;timestamp;pressure;altitude;pressure_sealevel;temperature;humidity
64827;BME280;51265;53.972;12.286;2022-09-09T00:06:58;100341.69;;;12.68;100.00
64827;BME280;51265;53.972;12.286;2022-09-09T00:09:30;100339.25;;;12.67;100.00
64827;BME280;51265;53.972;12.286;2022-09-09T00:12:15;100345.56;;;12.59;100.00
64827;BME280;51265;53.972;12.286;2022-09-09T00:14:58;100341.47;;;12.56;100.00
64827;BME280;51265;53.972;12.286;2022-09-09T00:20:37;100324.09;;;12.56;100.00
64827;BME280;51265;53.972;12.286;2022-09-09T00:23:41;100328.97;;;12.59;100.00
64827;BME280;51265;53.972;12.286;2022-09-09T00:26:19;100330.09;;;12.58;100.00
64827;BME280;51265;53.972;12.286;2022-09-09T00:28:57;100336.13;;;12.60;100.00
64827;BME280;51265;53.972;12.286;2022-09-09T00:31:28;100338.38;;;12.58;100.00
64827;BME280;51265;53.972;12.286;2022-09-09T00:33:59;100339.03;;;12.55;100.00
64827;BME280;51265;53.972;12.286;2022-09-09T00:36:30;100341.31;;;12.61;100.00
64827;BME280;51265;53.972;12.286;2022-09-09T00:39:02;100347.19;;;12.60;100.00
64827;BME280;51265;53.972;12.286;2022-09-09T00:44:13;100353.38;;;12.65;100.00
64827;BME280;51265;53.972;12.286;2022-09-09T00:46:49;100347.69;;;12.70;100.00
64827;BME280;51265;53.972;12.286;2022-09-09T00:49:35;100352.41;;;12.70;100.00
64827;BME280;51265;53.972;12.286;2022-09-09T01:02:50;100348.81;;;12.61;100.00
64827;BME280;51265;53.972;12.286;2022-09-09T01:05:29;100357.09;;;12.61;100.00
64827;BME280;51265;53.972;12.286;2022-09-09T01:07:57;100357.41;;;12.59;100.00
64827;BME280;51265;53.972;12.286;2022-09-09T01:10:35;100352.69;;;12.60;100.00
64827;BME280;51265;53.972;12.286;2022-09-09T01:13:11;100357.91;;;12.61;100.00
64827;BME280;51265;53.972;12.286;2022-09-09T01:15:40;100361.47;;;12.62;100.00
64827;BME280;51265;53.972;12.286;2022-09-09T01:18:12;100360.38;;;12.63;100.00
64827;BME280;51265;53.972;12.286;2022-09-09T01:26:37;100369.28;;;12.60;100.00
64827;BME280;51265;53.972;12.286;2022-09-09T01:29:13;100376.59;;;12.64;100.00
64827;BME280;51265;53.972;12.286;2022-09-09T01:31:52;100395.13;;;12.64;100.00
64827;BME280;51265;53.972;12.286;2022-09-09T01:34:19;100397.28;;;12.67;100.00
64827;BME280;51265;53.972;12.286;2022-09-09T01:39:37;100398.22;;;12.62;100.00
64827;BME280;51265;53.972;12.286;2022-09-09T01:42:10;100404.88;;;12.61;100.00
64827;BME280;51265;53.972;12.286;2022-09-09T01:44:37;100404.25;;;12.64;100.00
64827;BME280;51265;53.972;12.286;2022-09-09T01:47:05;100411.09;;;12.67;100.00
64827;BME280;51265;53.972;12.286;2022-09-09T01:49:32;100410.56;;;12.65;100.00
64827;BME280;51265;53.972;12.286;2022-09-09T01:52:04;100406.66;;;12.66;100.00
64827;BME280;51265;53.972;12.286;2022-09-09T01:54:34;100407.03;;;12.73;100.00
64827;BME280;51265;53.972;12.286;2022-09-09T01:57:33;100408.53;;;12.79;100.00
64827;BME280;51265;53.972;12.286;2022-09-09T02:00:11;100415.19;;;12.78;100.00
64827;BME280;51265;53.972;12.286;2022-09-09T02:02:59;100406.88;;;12.78;100.00
64827;BME280;51265;53.972;12.286;2022-09-09T02:05:45;100411.94;;;12.76;100.00
64827;BME280;51265;53.972;12.286;2022-09-09T02:08:33;100413.56;;;12.77;100.00
64827;BME280;51265;53.972;12.286;2022-09-09T02:11:11;100421.22;;;12.80;100.00
64827;BME280;51265;53.972;12.286;2022-09-09T02:14:01;100419.44;;;12.84;100.00
64827;BME280;51265;53.972;12.286;2022-09-09T02:19:11;100421.88;;;12.86;100.00
64827;BME280;51265;53.972;12.286;2022-09-09T02:21:53;100427.59;;;12.89;100.00
64827;BME280;51265;53.972;12.286;2022-09-09T02:24:21;100426.97;;;12.92;100.00
64827;BME280;51265;53.972;12.286;2022-09-09T02:26:57;100428.41;;;12.90;100.00
64827;BME280;51265;53.972;12.286;2022-09-09T02:29:29;100424.84;;;12.89;100.00
64827;BME280;51265;53.972;12.286;2022-09-09T02:31:59;100431.69;;;12.92;100.00
64827;BME280;51265;53.972;12.286;2022-09-09T02:34:34;100436.38;;;12.91;100.00
64827;BME280;51265;53.972;12.286;2022-09-09T02:37:03;100424.19;;;12.92;100.00
64827;BME280;51265;53.972;12.286;2022-09-09T02:39:29;100428.59;;;12.93;100.00
64827;BME280;51265;53.972;12.286;2022-09-09T02:41:55;100422.25;;;12.93;100.00
64827;BME280;51265;53.972;12.286;2022-09-09T02:44:29;100419.16;;;12.94;100.00
64827;BME280;51265;53.972;12.286;2022-09-09T02:47:10;100420.63;;;12.92;100.00
64827;BME280;51265;53.972;12.286;2022-09-09T02:50:32;100432.50;;;12.92;100.00
64827;BME280;51265;53.972;12.286;2022-09-09T02:52:42;100425.97;;;12.88;100.00
64827;BME280;51265;53.972;12.286;2022-09-09T02:55:20;100438.66;;;12.89;100.00
64827;BME280;51265;53.972;12.286;2022-09-09T02:57:52;100438.66;;;12.89;100.00
64827;BME280;51265;53.972;12.286;2022-09-09T03:00:27;100445.50;;;12.92;100.00
64827;BME280;51265;53.972;12.286;2022-09-09T03:02:57;100442.88;;;12.95;100.00
64827;BME280;51265;53.972;12.286;2022-09-09T03:05:23;100436.72;;;12.99;100.00
64827;BME280;51265;53.972;12.286;2022-09-09T03:07:49;100450.56;;;12.99;100.00
64827;BME280;51265;53.972;12.286;2022-09-09T03:10:17;100453.31;;;12.99;100.00
64827;BME280;51265;53.972;12.286;2022-09-09T03:12:43;100449.41;;;13.00;100.00
64827;BME280;51265;53.972;12.286;2022-09-09T03:15:10;100450.06;;;12.96;100.00
64827;BME280;51265;53.972;12.286;2022-09-09T03:17:38;100444.19;;;12.89;100.00
64827;BME280;51265;53.972;12.286;2022-09-09T03:20:04;100453.09;;;12.86;100.00
64827;BME280;51265;53.972;12.286;2022-09-09T03:22:31;100459.44;;;12.87;100.00
64827;BME280;51265;53.972;12.286;2022-09-09T03:24:58;100465.28;;;12.85;100.00
64827;BME280;51265;53.972;12.286;2022-09-09T03:27:25;100465.47;;;12.89;100.00
64827;BME280;51265;53.972;12.286;2022-09-09T03:29:52;100463.53;;;12.89;100.00
64827;BME280;51265;53.972;12.286;2022-09-09T03:32:24;100472.97;;;12.88;100.00
64827;BME280;51265;53.972;12.286;2022-09-09T03:34:52;100471.81;;;12.89;100.00
64827;BME280;51265;53.972;12.286;2022-09-09T03:37:19;100461.91;;;12.88;100.00
64827;BME280;51265;53.972;12.286;2022-09-09T03:39:46;100472.97;;;12.88;100.00
64827;BME280;51265;53.972;12.286;2022-09-09T03:42:13;100471.19;;;12.92;100.00
64827;BME280;51265;53.972;12.286;2022-09-09T03:44:42;100471.81;;;12.89;100.00
64827;BME280;51265;53.972;12.286;2022-09-09T03:47:09;100465.28;;;12.85;100.00
64827;BME280;51265;53.972;12.286;2022-09-09T03:49:35;100476.53;;;12.89;100.00
64827;BME280;51265;53.972;12.286;2022-09-09T03:52:01;100473.25;;;12.87;100.00
64827;BME280;51265;53.972;12.286;2022-09-09T03:54:28;100466.25;;;12.81;100.00
64827;BME280;51265;53.972;12.286;2022-09-09T03:56:55;100478.44;;;12.80;100.00
64827;BME280;51265;53.972;12.286;2022-09-09T03:59:22;100476.16;;;12.82;100.00
64827;BME280;51265;53.972;12.286;2022-09-09T04:01:49;100481.06;;;12.85;100.00
64827;BME280;51265;53.972;12.286;2022-09-09T04:04:15;100481.88;;;12.85;100.00
64827;BME280;51265;53.972;12.286;2022-09-09T04:06:41;100481.88;;;12.85;100.00
64827;BME280;51265;53.972;12.286;2022-09-09T04:09:07;100477.34;;;12.89;100.00
64827;BME280;51265;53.972;12.286;2022-09-09T04:11:33;100480.13;;;12.89;100.00
64827;BME280;51265;53.972;12.286;2022-09-09T04:14:00;100482.22;;;12.84;100.00
64827;BME280;51265;53.972;12.286;2022-09-09T04:16:28;100489.69;;;12.83;100.00
64827;BME280;51265;53.972;12.286;2022-09-09T04:18:54;100489.03;;;12.86;100.00
64827;BME280;51265;53.972;12.286;2022-09-09T04:21:21;100489.84;;;12.87;100.00
64827;BME280;51265;53.972;12.286;2022-09-09T04:23:47;100499.47;;;12.89;100.00
64827;BME280;51265;53.972;12.286;2022-09-09T04:26:13;100497.84;;;12.88;100.00
64827;BME280;51265;53.972;12.286;2022-09-09T04:28:40;100491.50;;;12.88;100.00
64827;BME280;51265;53.972;12.286;2022-09-09T04:31:18;100490.53;;;12.92;100.00
64827;BME280;51265;53.972;12.286;2022-09-09T04:33:47;100490.53;;;12.92;100.00
64827;BME280;51265;53.972;12.286;2022-09-09T04:36:13;100494.59;;;12.95;100.00
64827;BME280;51265;53.972;12.286;2022-09-09T04:38:39;100490.41;;;12.98;100.00
64827;BME280;51265;53.972;12.286;2022-09-09T04:41:05;100495.94;;;12.98;100.00
64827;BME280;51265;53.972;12.286;2022-09-09T04:43:33;100496.75;;;12.98;100.00
64827;BME280;51265;53.972;12.286;2022-09-09T04:46:02;100501.47;;;12.98;100.00
64827;BME280;51265;53.972;12.286;2022-09-09T04:48:27;100504.69;;;13.00;100.00
64827;BME280;51265;53.972;12.286;2022-09-09T04:50:59;100511.06;;;13.00;100.00
64827;BME280;51265;53.972;12.286;2022-09-09T04:53:26;100506.84;;;13.03;100.00
64827;BME280;51265;53.972;12.286;2022-09-09T04:56:03;100507.34;;;13.05;100.00
64827;BME280;51265;53.972;12.286;2022-09-09T04:58:30;100513.03;;;13.08;100.00
64827;BME280;51265;53.972;12.286;2022-09-09T05:01:17;100513.41;;;13.15;100.00
64827;BME280;51265;53.972;12.286;2022-09-09T05:03:45;100519.13;;;13.19;100.00
64827;BME280;51265;53.972;12.286;2022-09-09T05:06:15;100528.56;;;13.18;100.00
64827;BME280;51265;53.972;12.286;2022-09-09T05:08:44;100530.81;;;13.16;100.00
64827;BME280;51265;53.972;12.286;2022-09-09T05:13:43;100530.19;;;13.19;100.00
64827;BME280;51265;53.972;12.286;2022-09-09T05:16:10;100529.38;;;13.18;100.00
64827;BME280;51265;53.972;12.286;2022-09-09T05:18:39;100538.34;;;13.24;100.00
64827;BME280;51265;53.972;12.286;2022-09-09T05:21:07;100529.75;;;13.26;100.00
64827;BME280;51265;53.972;12.286;2022-09-09T05:23:36;100526.69;;;13.36;100.00
64827;BME280;51265;53.972;12.286;2022-09-09T05:26:04;100532.25;;;13.44;100.00
64827;BME280;51265;53.972;12.286;2022-09-09T05:28:30;100525.09;;;13.43;100.00
64827;BME280;51265;53.972;12.286;2022-09-09T05:30:58;100527.72;;;13.49;100.00
64827;BME280;51265;53.972;12.286;2022-09-09T05:33:25;100531.00;;;13.51;100.00
64827;BME280;51265;53.972;12.286;2022-09-09T05:35:58;100522.19;;;13.49;100.00
64827;BME280;51265;53.972;12.286;2022-09-09T05:38:25;100524.16;;;13.57;100.00
64827;BME280;51265;53.972;12.286;2022-09-09T05:40:52;100519.59;;;13.52;100.00
64827;BME280;51265;53.972;12.286;2022-09-09T05:43:19;100519.78;;;13.56;100.00
64827;BME280;51265;53.972;12.286;2022-09-09T05:45:47;100518.97;;;13.64;100.00
64827;BME280;51265;53.972;12.286;2022-09-09T05:48:14;100518.50;;;13.70;100.00
64827;BME280;51265;53.972;12.286;2022-09-09T05:50:42;100519.97;;;13.77;100.00
64827;BME280;51265;53.972;12.286;2022-09-09T05:53:09;100511.34;;;13.78;100.00
64827;BME280;51265;53.972;12.286;2022-09-09T05:55:36;100507.31;;;13.84;100.00
64827;BME280;51265;53.972;12.286;2022-09-09T05:58:03;100511.38;;;13.95;100.00
64827;BME280;51265;53.972;12.286;2022-09-09T06:00:28;100509.56;;;14.00;100.00
64827;BME280;51265;53.972;12.286;2022-09-09T06:02:57;100513.84;;;14.06;100.00
64827;BME280;51265;53.972;12.286;2022-09-09T06:05:23;100508.63;;;14.13;100.00
64827;BME280;51265;53.972;12.286;2022-09-09T06:07:53;100508.94;;;14.11;100.00
64827;BME280;51265;53.972;12.286;2022-09-09T06:10:19;100518.22;;;14.15;100.00
64827;BME280;51265;53.972;12.286;2022-09-09T06:12:45;100514.47;;;14.20;100.00
64827;BME280;51265;53.972;12.286;2022-09-09T06:15:11;100513.50;;;14.25;100.00
64827;BME280;51265;53.972;12.286;2022-09-09T06:17:38;100515.44;;;14.24;100.00
64827;BME280;51265;53.972;12.286;2022-09-09T06:20:05;100505.69;;;14.18;100.00
64827;BME280;51265;53.972;12.286;2022-09-09T06:22:32;100500.00;;;14.14;100.00
64827;BME280;51265;53.972;12.286;2022-09-09T06:24:58;100496.22;;;14.19;100.00
64827;BME280;51265;53.972;12.286;2022-09-09T06:27:24;100476.84;;;14.28;100.00
64827;BME280;51265;53.972;12.286;2022-09-09T06:29:49;100483.53;;;14.35;100.00
64827;BME280;51265;53.972;12.286;2022-09-09T06:32:16;100487.09;;;14.44;100.00
64827;BME280;51265;53.972;12.286;2022-09-09T06:34:43;100472.59;;;14.48;100.00
64827;BME280;51265;53.972;12.286;2022-09-09T06:37:11;100470.47;;;14.62;100.00
64827;BME280;51265;53.972;12.286;2022-09-09T06:39:42;100462.94;;;14.71;100.00
64827;BME280;51265;53.972;12.286;2022-09-09T06:42:08;100454.78;;;14.66;100.00
64827;BME280;51265;53.972;12.286;2022-09-09T06:44:49;100444.69;;;14.70;100.00
64827;BME280;51265;53.972;12.286;2022-09-09T06:47:23;100434.00;;;14.89;100.00
64827;BME280;51265;53.972;12.286;2022-09-09T06:49:50;100422.50;;;15.08;100.00
64827;BME280;51265;53.972;12.286;2022-09-09T06:52:16;100419.34;;;15.18;100.00
64827;BME280;51265;53.972;12.286;2022-09-09T06:54:43;100415.22;;;15.25;100.00
64827;BME280;51265;53.972;12.286;2022-09-09T06:57:14;100412.25;;;15.30;100.00
64827;BME280;51265;53.972;12.286;2022-09-09T06:59:40;100398.53;;;15.33;100.00
64827;BME280;51265;53.972;12.286;2022-09-09T07:02:07;100393.28;;;15.40;100.00
64827;BME280;51265;53.972;12.286;2022-09-09T07:04:33;100382.66;;;15.42;100.00
64827;BME280;51265;53.972;12.286;2022-09-09T07:06:59;100373.84;;;15.40;100.00
64827;BME280;51265;53.972;12.286;2022-09-09T07:09:25;100373.31;;;15.47;100.00
64827;BME280;51265;53.972;12.286;2022-09-09T07:11:53;100366.53;;;15.57;100.00
64827;BME280;51265;53.972;12.286;2022-09-09T07:14:21;100371.44;;;15.60;100.00
64827;BME280;51265;53.972;12.286;2022-09-09T07:16:53;100362.31;;;15.51;100.00
64827;BME280;51265;53.972;12.286;2022-09-09T07:19:19;100373.63;;;15.45;100.00
64827;BME280;51265;53.972;12.286;2022-09-09T07:21:48;100376.41;;;15.45;100.00
64827;BME280;51265;53.972;12.286;2022-09-09T07:24:17;100372.91;;;15.36;100.00
64827;BME280;51265;53.972;12.286;2022-09-09T07:26:43;100377.44;;;15.41;100.00
64827;BME280;51265;53.972;12.286;2022-09-09T07:29:10;100375.47;;;15.41;100.00
64827;BME280;51265;53.972;12.286;2022-09-09T07:31:39;100372.22;;;15.39;100.00
64827;BME280;51265;53.972;12.286;2022-09-09T07:34:10;100377.28;;;15.37;100.00
64827;BME280;51265;53.972;12.286;2022-09-09T07:36:37;100375.31;;;15.38;100.00
64827;BME280;51265;53.972;12.286;2022-09-09T07:39:08;100373.38;;;15.38;100.00
64827;BME280;51265;53.972;12.286;2022-09-09T07:41:38;100368.97;;;15.37;100.00
64827;BME280;51265;53.972;12.286;2022-09-09T07:44:06;100376.41;;;15.45;100.00
64827;BME280;51265;53.972;12.286;2022-09-09T07:46:34;100381.91;;;15.54;100.00
64827;BME280;51265;53.972;12.286;2022-09-09T07:49:01;100389.53;;;15.66;100.00
64827;BME280;51265;53.972;12.286;2022-09-09T07:51:32;100377.31;;;15.79;100.00
64827;BME280;51265;53.972;12.286;2022-09-09T07:54:00;100382.69;;;15.84;100.00
64827;BME280;51265;53.972;12.286;2022-09-09T07:56:30;100373.88;;;15.82;100.00
64827;BME280;51265;53.972;12.286;2022-09-09T07:58:58;100366.91;;;15.76;100.00
64827;BME280;51265;53.972;12.286;2022-09-09T08:01:30;100371.69;;;15.67;100.00
64827;BME280;51265;53.972;12.286;2022-09-09T08:03:59;100370.78;;;15.54;100.00
64827;BME280;51265;53.972;12.286;2022-09-09T08:06:26;100371.28;;;15.56;100.00
64827;BME280;51265;53.972;12.286;2022-09-09T08:08:53;100376.69;;;15.53;100.00
64827;BME280;51265;53.972;12.286;2022-09-09T08:11:22;100375.06;;;15.52;100.00
64827;BME280;51265;53.972;12.286;2022-09-09T08:13:49;100380.63;;;15.52;100.00
64827;BME280;51265;53.972;12.286;2022-09-09T08:16:21;100383.28;;;15.69;100.00
64827;BME280;51265;53.972;12.286;2022-09-09T08:18:49;100386.59;;;15.83;100.00
64827;BME280;51265;53.972;12.286;2022-09-09T08:21:20;100390.16;;;16.05;100.00
64827;BME280;51265;53.972;12.286;2022-09-09T08:23:47;100387.91;;;16.19;100.00
64827;BME280;51265;53.972;12.286;2022-09-09T08:26:20;100383.78;;;16.37;100.00
64827;BME280;51265;53.972;12.286;2022-09-09T08:28:49;100390.59;;;16.73;100.00
64827;BME280;51265;53.972;12.286;2022-09-09T08:33:51;100377.97;;;17.25;100.00
64827;BME280;51265;53.972;12.286;2022-09-09T08:36:21;100374.56;;;17.56;100.00
64827;BME280;51265;53.972;12.286;2022-09-09T08:38:48;100375.66;;;17.79;100.00
64827;BME280;51265;53.972;12.286;2022-09-09T08:50:16;100365.09;;;18.29;100.00
64827;BME280;51265;53.972;12.286;2022-09-09T08:55:43;100364.16;;;18.53;100.00
64827;BME280;51265;53.972;12.286;2022-09-09T08:58:20;100369.19;;;18.63;100.00
64827;BME280;51265;53.972;12.286;2022-09-09T09:07:16;100370.72;;;19.43;100.00
64827;BME280;51265;53.972;12.286;2022-09-09T09:10:08;100367.06;;;19.74;100.00
64827;BME280;51265;53.972;12.286;2022-09-09T09:12:41;100368.66;;;19.75;100.00
64827;BME280;51265;53.972;12.286;2022-09-09T09:15:37;100376.31;;;19.98;100.00
64827;BME280;51265;53.972;12.286;2022-09-09T09:18:04;100376.59;;;20.12;100.00
64827;BME280;51265;53.972;12.286;2022-09-09T09:20:50;100366.47;;;19.84;100.00
64827;BME280;51265;53.972;12.286;2022-09-09T09:23:24;100365.97;;;19.79;100.00
64827;BME280;51265;53.972;12.286;2022-09-09T09:25:59;100362.94;;;19.87;100.00
64827;BME280;51265;53.972;12.286;2022-09-09T09:28:29;100361.09;;;19.76;100.00
64827;BME280;51265;53.972;12.286;2022-09-09T09:31:05;100363.09;;;19.75;100.00
64827;BME280;51265;53.972;12.286;2022-09-09T09:36:12;100367.09;;;19.58;100.00
64827;BME280;51265;53.972;12.286;2022-09-09T09:38:59;100366.38;;;19.81;100.00
64827;BME280;51265;53.972;12.286;2022-09-09T09:41:36;100366.16;;;20.09;100.00
64827;BME280;51265;53.972;12.286;2022-09-09T09:44:05;100365.59;;;20.00;100.00
64827;BME280;51265;53.972;12.286;2022-09-09T09:46:45;100362.56;;;19.89;100.00
64827;BME280;51265;53.972;12.286;2022-09-09T09:49:13;100352.44;;;19.61;100.00
64827;BME280;51265;53.972;12.286;2022-09-09T09:51:40;100358.53;;;19.67;100.00
64827;BME280;51265;53.972;12.286;2022-09-09T09:54:14;100359.09;;;19.76;100.00
64827;BME280;51265;53.972;12.286;2022-09-09T09:56:49;100355.94;;;19.97;100.00
64827;BME280;51265;53.972;12.286;2022-09-09T09:59:32;100352.88;;;20.02;100.00
64827;BME280;51265;53.972;12.286;2022-09-09T10:05:35;100342.41;;;19.99;100.00
64827;BME280;51265;53.972;12.286;2022-09-09T10:08:12;100355.03;;;20.32;100.00
64827;BME280;51265;53.972;12.286;2022-09-09T10:13:17;100349.38;;;20.28;100.00
64827;BME280;51265;53.972;12.286;2022-09-09T10:16:10;100349.53;;;20.39;100.00
64827;BME280;51265;53.972;12.286;2022-09-09T10:18:55;100353.47;;;20.34;100.00
64827;BME280;51265;53.972;12.286;2022-09-09T10:27:23;100355.69;;;20.68;100.00
64827;BME280;51265;53.972;12.286;2022-09-09T10:32:48;100350.59;;;20.50;100.00
64827;BME280;51265;53.972;12.286;2022-09-09T10:35:25;100358.34;;;20.83;100.00
64827;BME280;51265;53.972;12.286;2022-09-09T10:46:09;100358.44;;;21.70;100.00
64827;BME280;51265;53.972;12.286;2022-09-09T10:51:43;100348.50;;;22.10;100.00
64827;BME280;51265;53.972;12.286;2022-09-09T10:56:55;100347.91;;;22.27;100.00
64827;BME280;51265;53.972;12.286;2022-09-09T10:59:31;100356.84;;;22.40;100.00
64827;BME280;51265;53.972;12.286;2022-09-09T11:02:05;100354.31;;;22.24;100.00
64827;BME280;51265;53.972;12.286;2022-09-09T11:04:43;100355.47;;;22.23;100.00
64827;BME280;51265;53.972;12.286;2022-09-09T11:07:13;100350.31;;;22.25;100.00
64827;BME280;51265;53.972;12.286;2022-09-09T11:09:53;100359.88;;;22.21;100.00
64827;BME280;51265;53.972;12.286;2022-09-09T11:12:23;100354.34;;;22.31;100.00
64827;BME280;51265;53.972;12.286;2022-09-09T11:15:14;100352.44;;;22.83;100.00
64827;BME280;51265;53.972;12.286;2022-09-09T11:17:46;100350.63;;;23.05;100.00
64827;BME280;51265;53.972;12.286;2022-09-09T11:20:15;100344.72;;;23.21;100.00
64827;BME280;51265;53.972;12.286;2022-09-09T11:23:02;100352.50;;;23.46;100.00
64827;BME280;51265;53.972;12.286;2022-09-09T11:25:57;100363.19;;;23.92;100.00
64827;BME280;51265;53.972;12.286;2022-09-09T11:34:19;100363.75;;;25.37;94.84
64827;BME280;51265;53.972;12.286;2022-09-09T11:37:23;100357.19;;;25.82;84.46
64827;BME280;51265;53.972;12.286;2022-09-09T11:42:39;100363.28;;;25.63;81.46
64827;BME280;51265;53.972;12.286;2022-09-09T11:45:18;100363.75;;;24.62;82.83
64827;BME280;51265;53.972;12.286;2022-09-09T11:48:26;100364.72;;;23.71;89.77
64827;BME280;51265;53.972;12.286;2022-09-09T11:53:58;100350.38;;;22.77;97.39
64827;BME280;51265;53.972;12.286;2022-09-09T11:56:28;100361.91;;;22.65;94.68
64827;BME280;51265;53.972;12.286;2022-09-09T12:01:28;100351.81;;;23.01;96.35
64827;BME280;51265;53.972;12.286;2022-09-09T12:06:58;100347.50;;;23.83;94.25
64827;BME280;51265;53.972;12.286;2022-09-09T12:09:33;100342.84;;;24.38;95.52
64827;BME280;51265;53.972;12.286;2022-09-09T12:17:31;100340.44;;;25.18;84.89
64827;BME280;51265;53.972;12.286;2022-09-09T12:20:06;100336.41;;;25.19;84.32
64827;BME280;51265;53.972;12.286;2022-09-09T12:22:43;100331.56;;;25.38;84.61
64827;BME280;51265;53.972;12.286;2022-09-09T12:28:11;100328.22;;;25.64;81.02
64827;BME280;51265;53.972;12.286;2022-09-09T12:30:56;100336.16;;;25.98;78.66
64827;BME280;51265;53.972;12.286;2022-09-09T12:33:24;100332.88;;;26.10;78.23
64827;BME280;51265;53.972;12.286;2022-09-09T12:35:55;100332.66;;;25.62;75.20
64827;BME280;51265;53.972;12.286;2022-09-09T12:38:36;100328.69;;;25.45;77.56
64827;BME280;51265;53.972;12.286;2022-09-09T12:41:03;100326.59;;;25.70;75.60
64827;BME280;51265;53.972;12.286;2022-09-09T12:43:29;100327.38;;;25.81;72.56
64827;BME280;51265;53.972;12.286;2022-09-09T12:46:01;100327.00;;;25.65;76.22
64827;BME280;51265;53.972;12.286;2022-09-09T12:48:36;100320.59;;;25.54;76.63
64827;BME280;51265;53.972;12.286;2022-09-09T12:51:05;100319.84;;;25.46;74.34
64827;BME280;51265;53.972;12.286;2022-09-09T12:53:36;100313.06;;;25.22;78.69
64827;BME280;51265;53.972;12.286;2022-09-09T12:56:07;100311.47;;;25.14;83.03
64827;BME280;51265;53.972;12.286;2022-09-09T12:58:36;100311.06;;;24.91;85.42
64827;BME280;51265;53.972;12.286;2022-09-09T13:01:04;100307.47;;;24.69;84.00
64827;BME280;51265;53.972;12.286;2022-09-09T13:03:33;100313.06;;;24.33;83.33
64827;BME280;51265;53.972;12.286;2022-09-09T13:06:10;100314.19;;;24.07;87.06
64827;BME280;51265;53.972;12.286;2022-09-09T13:08:38;100306.47;;;23.75;89.39
64827;BME280;51265;53.972;12.286;2022-09-09T13:11:09;100310.69;;;23.41;92.41
64827;BME280;51265;53.972;12.286;2022-09-09T13:13:40;100310.97;;;23.14;94.61
64827;BME280;51265;53.972;12.286;2022-09-09T13:16:19;100317.03;;;22.68;97.92
64827;BME280;51265;53.972;12.286;2022-09-09T13:18:46;100307.75;;;22.16;100.00
64827;BME280;51265;53.972;12.286;2022-09-09T13:21:12;100315.38;;;21.85;100.00
64827;BME280;51265;53.972;12.286;2022-09-09T13:23:39;100319.22;;;21.70;100.00
64827;BME280;51265;53.972;12.286;2022-09-09T13:26:20;100324.78;;;21.67;100.00
64827;BME280;51265;53.972;12.286;2022-09-09T13:28:50;100319.97;;;21.67;100.00
64827;BME280;51265;53.972;12.286;2022-09-09T13:31:42;100312.81;;;21.73;100.00
64827;BME280;51265;53.972;12.286;2022-09-09T13:34:29;100306.91;;;21.82;100.00
64827;BME280;51265;53.972;12.286;2022-09-09T13:37:01;100309.59;;;21.71;100.00
64827;BME280;51265;53.972;12.286;2022-09-09T13:39:35;100309.34;;;21.50;100.00
64827;BME280;51265;53.972;12.286;2022-09-09T13:42:03;100308.06;;;21.17;100.00
64827;BME280;51265;53.972;12.286;2022-09-09T13:44:32;100308.38;;;20.85;100.00
64827;BME280;51265;53.972;12.286;2022-09-09T13:49:35;100314.44;;;20.42;100.00
64827;BME280;51265;53.972;12.286;2022-09-09T13:52:09;100315.91;;;20.12;100.00
64827;BME280;51265;53.972;12.286;2022-09-09T13:54:36;100313.47;;;19.33;100.00
64827;BME280;51265;53.972;12.286;2022-09-09T13:57:02;100311.25;;;18.72;100.00
64827;BME280;51265;53.972;12.286;2022-09-09T13:59:30;100319.97;;;18.55;100.00
64827;BME280;51265;53.972;12.286;2022-09-09T14:01:55;100321.34;;;18.61;100.00
64827;BME280;51265;53.972;12.286;2022-09-09T14:04:22;100325.47;;;18.67;100.00
64827;BME280;51265;53.972;12.286;2022-09-09T14:06:49;100328.72;;;18.69;100.00
64827;BME280;51265;53.972;12.286;2022-09-09T14:09:17;100328.91;;;18.76;100.00
64827;BME280;51265;53.972;12.286;2022-09-09T14:11:44;100328.25;;;18.99;100.00
64827;BME280;51265;53.972;12.286;2022-09-09T14:14:11;100329.19;;;19.22;100.00
64827;BME280;51265;53.972;12.286;2022-09-09T14:16:37;100340.75;;;19.40;100.00
64827;BME280;51265;53.972;12.286;2022-09-09T14:19:03;100327.75;;;19.48;100.00
64827;BME280;51265;53.972;12.286;2022-09-09T14:21:29;100330.53;;;19.48;100.00
64827;BME280;51265;53.972;12.286;2022-09-09T14:23:55;100334.50;;;19.47;100.00
64827;BME280;51265;53.972;12.286;2022-09-09T14:26:24;100340.81;;;19.44;100.00
64827;BME280;51265;53.972;12.286;2022-09-09T14:28:50;100335.38;;;19.51;100.00
64827;BME280;51265;53.972;12.286;2022-09-09T14:31:17;100331.78;;;19.50;100.00
64827;BME280;51265;53.972;12.286;2022-09-09T14:33:44;100334.44;;;19.43;100.00
64827;BME280;51265;53.972;12.286;2022-09-09T14:36:10;100339.66;;;19.45;100.00
64827;BME280;51265;53.972;12.286;2022-09-09T14:38:37;100332.09;;;19.45;100.00
64827;BME280;51265;53.972;12.286;2022-09-09T14:41:12;100332.16;;;19.49;100.00
64827;BME280;51265;53.972;12.286;2022-09-09T14:43:39;100330.69;;;19.55;100.00
64827;BME280;51265;53.972;12.286;2022-09-09T14:46:09;100328.25;;;19.69;100.00
64827;BME280;51265;53.972;12.286;2022-09-09T14:48:35;100333.22;;;19.79;100.00